createdAt,value
2017-12-21T00:01:51.250Z,2.57
2017-12-21T00:06:52.080Z,2.68
2017-12-21T00:11:52.968Z,2.73
2017-12-21T00:16:53.769Z,2.78
2017-12-21T00:21:56.157Z,2.91
2017-12-21T00:27:03.538Z,2.91
2017-12-21T00:32:04.341Z,2.93
2017-12-21T00:37:05.210Z,3.00
2017-12-21T00:42:06.021Z,3.06
2017-12-21T00:47:10.249Z,3.10
2017-12-21T00:52:11.049Z,3.07
2017-12-21T00:57:11.893Z,3.10
2017-12-21T01:02:12.705Z,3.14
2017-12-21T01:07:13.566Z,3.11
2017-12-21T01:12:14.389Z,3.21
2017-12-21T01:17:15.250Z,3.21
2017-12-21T01:22:16.061Z,3.28
2017-12-21T01:27:16.890Z,3.22
2017-12-21T01:32:17.743Z,3.23
2017-12-21T01:37:18.578Z,3.25
2017-12-21T01:42:19.371Z,3.35
2017-12-21T01:47:20.180Z,3.38
2017-12-21T01:52:20.989Z,3.37
2017-12-21T01:57:35.302Z,3.35
2017-12-21T02:02:43.121Z,3.42
2017-12-21T02:07:43.974Z,3.41
2017-12-21T02:12:44.762Z,3.40
2017-12-21T02:17:45.577Z,3.37
2017-12-21T02:22:59.558Z,3.44
2017-12-21T02:28:00.424Z,3.35
2017-12-21T02:33:01.270Z,3.46
2017-12-21T02:38:02.118Z,3.39
2017-12-21T02:43:07.134Z,3.39
2017-12-21T02:48:07.970Z,3.46
2017-12-21T02:53:08.784Z,3.38
2017-12-21T02:58:09.626Z,3.31
2017-12-21T03:03:10.447Z,3.27
2017-12-21T03:08:11.341Z,3.32
2017-12-21T03:13:12.168Z,3.37
2017-12-21T03:18:13.035Z,3.39
2017-12-21T03:23:13.847Z,3.40
2017-12-21T03:28:14.673Z,3.47
2017-12-21T03:33:15.518Z,3.42
2017-12-21T03:38:16.315Z,3.38
2017-12-21T03:43:17.095Z,3.47
2017-12-21T03:53:47.736Z,3.43
2017-12-21T03:58:48.537Z,3.44
2017-12-21T04:03:49.381Z,3.40
2017-12-21T04:08:50.192Z,3.43
2017-12-21T04:13:50.989Z,3.41
2017-12-21T04:18:51.826Z,3.45
2017-12-21T04:23:52.622Z,3.43
2017-12-21T04:28:53.447Z,3.42
2017-12-21T04:33:54.277Z,3.50
2017-12-21T04:38:55.114Z,3.39
2017-12-21T04:43:55.978Z,3.46
2017-12-21T04:48:56.766Z,3.41
2017-12-21T04:53:57.609Z,3.41
2017-12-21T04:58:58.462Z,3.39
2017-12-21T05:03:59.258Z,3.47
2017-12-21T05:09:00.129Z,3.43
2017-12-21T05:14:04.263Z,3.39
2017-12-21T05:19:05.081Z,3.44
2017-12-21T05:24:05.941Z,3.38
2017-12-21T05:29:06.764Z,3.31
2017-12-21T05:34:09.589Z,3.39
2017-12-21T05:39:10.436Z,3.38
2017-12-21T05:44:11.222Z,3.36
2017-12-21T05:49:12.032Z,3.39
2017-12-21T05:54:12.847Z,3.35
2017-12-21T05:59:13.649Z,3.38
2017-12-21T06:04:14.469Z,3.42
2017-12-21T06:09:15.278Z,3.31
2017-12-21T06:14:16.086Z,3.37
2017-12-21T06:19:16.909Z,3.23
2017-12-21T06:24:35.450Z,3.20
2017-12-21T06:29:36.280Z,3.19
2017-12-21T06:34:37.098Z,3.22
2017-12-21T06:39:37.887Z,3.19
2017-12-21T06:44:38.702Z,3.14
2017-12-21T06:49:39.510Z,3.14
2017-12-21T06:54:40.314Z,3.14
2017-12-21T06:59:48.714Z,3.13
2017-12-21T07:04:49.505Z,3.11
2017-12-21T07:09:50.401Z,3.11
2017-12-21T07:14:54.574Z,3.08
2017-12-21T07:19:55.390Z,3.13
2017-12-21T07:24:56.193Z,3.25
2017-12-21T07:29:57.010Z,3.20
2017-12-21T07:34:57.805Z,3.17
2017-12-21T07:39:58.621Z,3.27
2017-12-21T07:44:59.421Z,3.21
2017-12-21T07:50:00.240Z,3.34
2017-12-21T07:55:01.053Z,3.34
2017-12-21T08:00:01.877Z,3.35
2017-12-21T08:05:02.686Z,3.42
2017-12-21T08:10:03.558Z,3.43
2017-12-21T08:15:24.787Z,3.44
2017-12-21T08:20:25.678Z,3.55
2017-12-21T08:25:32.749Z,3.63
2017-12-21T08:30:33.613Z,3.64
2017-12-21T08:35:34.443Z,3.70
2017-12-21T08:40:35.274Z,3.72
2017-12-21T08:45:36.078Z,3.74
2017-12-21T08:50:40.001Z,3.78
2017-12-21T08:55:40.802Z,3.91
2017-12-21T09:00:41.604Z,4.03
2017-12-21T09:05:42.409Z,4.02
2017-12-21T09:16:12.414Z,4.04
2017-12-21T09:27:05.313Z,4.11
2017-12-21T09:32:06.151Z,4.25
2017-12-21T09:37:06.954Z,4.28
2017-12-21T09:42:07.822Z,4.40
2017-12-21T09:47:08.641Z,4.42
2017-12-21T09:52:10.462Z,4.53
2017-12-21T09:57:11.301Z,4.37
2017-12-21T10:02:12.111Z,4.60
2017-12-21T10:07:16.937Z,4.69
2017-12-21T10:12:23.198Z,4.76
2017-12-21T10:17:26.040Z,4.93
2017-12-21T10:22:26.924Z,4.98
2017-12-21T10:27:27.773Z,5.18
2017-12-21T10:32:28.633Z,5.24
2017-12-21T10:37:29.460Z,5.18
2017-12-21T10:42:44.816Z,5.24
2017-12-21T10:47:50.971Z,5.12
2017-12-21T10:52:59.237Z,5.10
2017-12-21T10:58:04.537Z,5.17
2017-12-21T11:03:07.405Z,5.20
2017-12-21T11:08:20.470Z,5.30
2017-12-21T11:13:24.994Z,5.43
2017-12-21T11:18:40.663Z,5.52
2017-12-21T11:23:48.355Z,5.71
2017-12-21T11:28:59.465Z,5.67
2017-12-21T11:39:34.594Z,5.72
2017-12-21T11:44:59.616Z,5.55
2017-12-21T11:50:12.213Z,5.63
2017-12-21T11:55:23.581Z,5.78
2017-12-21T12:00:30.705Z,5.77
2017-12-21T12:05:52.297Z,5.73
2017-12-21T12:10:53.114Z,5.67
2017-12-21T12:15:53.893Z,5.73
2017-12-21T12:26:31.463Z,5.64
2017-12-21T12:31:38.715Z,5.67
2017-12-21T12:36:39.521Z,5.69
2017-12-21T12:41:50.489Z,5.58
2017-12-21T12:46:51.317Z,5.61
2017-12-21T12:51:52.986Z,5.55
2017-12-21T12:56:53.814Z,5.47
2017-12-21T13:01:54.697Z,5.51
2017-12-21T13:06:57.558Z,5.48
2017-12-21T13:12:04.466Z,5.42
2017-12-21T13:17:05.300Z,5.36
2017-12-21T13:22:08.129Z,5.43
2017-12-21T13:27:08.951Z,5.28
2017-12-21T13:32:09.771Z,5.21
2017-12-21T13:37:13.705Z,5.23
2017-12-21T13:42:14.513Z,5.20
2017-12-21T13:47:16.331Z,5.21
2017-12-21T13:52:27.167Z,5.23
2017-12-21T13:57:33.091Z,5.12
2017-12-21T14:02:40.168Z,5.05
2017-12-21T14:07:45.006Z,5.11
2017-12-21T14:12:47.856Z,5.09
2017-12-21T14:17:52.134Z,5.03
2017-12-21T14:22:52.978Z,5.04
2017-12-21T14:27:53.810Z,5.02
2017-12-21T14:32:55.685Z,5.11
2017-12-21T14:38:21.373Z,5.03
2017-12-21T14:43:44.878Z,5.00
2017-12-21T14:48:47.762Z,5.00
2017-12-21T14:54:12.813Z,4.93
2017-12-21T14:59:32.041Z,4.85
2017-12-21T15:04:32.886Z,4.95
2017-12-21T15:09:37.587Z,4.89
2017-12-21T15:14:42.259Z,4.89
2017-12-21T15:19:56.449Z,4.93
2017-12-21T15:24:57.310Z,4.91
2017-12-21T15:35:32.113Z,4.91
2017-12-21T15:51:48.911Z,4.96
2017-12-21T15:56:55.781Z,4.94
2017-12-21T16:18:20.418Z,4.95
2017-12-21T16:34:27.753Z,4.97
2017-12-21T16:50:41.660Z,5.05
2017-12-21T16:55:43.495Z,5.11
2017-12-21T17:01:08.897Z,5.19
2017-12-21T17:38:56.842Z,5.54
2017-12-21T17:43:57.808Z,5.48
2017-12-21T17:54:34.337Z,5.59
2017-12-21T17:59:35.187Z,5.61
2017-12-21T18:04:36.092Z,5.69
2017-12-21T18:09:37.921Z,5.77
2017-12-21T18:14:42.825Z,5.72
2017-12-21T18:19:55.342Z,5.74
2017-12-21T18:24:56.213Z,5.76
2017-12-21T18:29:57.105Z,5.71
2017-12-21T18:34:58.065Z,5.81
2017-12-21T18:39:58.869Z,5.84
2017-12-21T18:44:59.722Z,5.84
2017-12-21T18:50:00.621Z,5.87
2017-12-21T18:55:01.568Z,5.87
2017-12-21T19:00:02.460Z,5.88
2017-12-21T19:05:03.347Z,5.86
2017-12-21T19:10:04.235Z,5.84
2017-12-21T19:15:27.510Z,5.86
2017-12-21T19:20:35.447Z,5.86
2017-12-21T19:25:36.291Z,5.88
2017-12-21T19:30:45.748Z,5.90
2017-12-21T19:35:46.633Z,5.89
2017-12-21T19:40:53.804Z,5.88
2017-12-21T19:45:57.791Z,5.91
2017-12-21T19:50:58.721Z,5.88
2017-12-21T19:56:21.210Z,5.91
2017-12-21T20:01:32.409Z,5.95
2017-12-21T20:06:57.546Z,5.94
2017-12-21T20:12:19.584Z,5.89
2017-12-21T20:17:20.490Z,5.97
2017-12-21T20:22:25.441Z,5.91
2017-12-21T20:27:26.390Z,5.92
2017-12-21T20:32:30.502Z,5.91
2017-12-21T20:37:31.444Z,5.87
2017-12-21T20:42:34.301Z,5.94
2017-12-21T20:47:38.758Z,5.95
2017-12-21T20:52:39.620Z,5.98
2017-12-21T20:57:46.632Z,5.96
2017-12-21T21:02:48.515Z,5.99
2017-12-21T21:08:14.368Z,5.99
2017-12-21T21:19:00.552Z,5.99
2017-12-21T21:24:01.413Z,6.04
2017-12-21T21:29:19.176Z,6.01
2017-12-21T21:34:20.062Z,6.03
2017-12-21T21:39:20.924Z,6.06
2017-12-21T21:44:42.416Z,6.04
2017-12-21T21:49:43.225Z,6.08
2017-12-21T21:54:45.071Z,6.10
2017-12-21T21:59:45.920Z,6.12
2017-12-21T22:04:54.767Z,6.11
2017-12-21T22:09:55.679Z,6.14
2017-12-21T22:14:59.728Z,6.15
2017-12-21T22:20:10.586Z,6.19
2017-12-21T22:25:11.484Z,6.24
2017-12-21T22:30:19.519Z,6.14
2017-12-21T22:35:20.378Z,6.23
2017-12-21T22:40:21.243Z,6.19
2017-12-21T22:45:28.281Z,6.20
2017-12-21T22:50:29.129Z,6.23
2017-12-21T23:00:57.745Z,6.17
2017-12-21T23:05:59.371Z,6.22
2017-12-21T23:11:00.219Z,6.28
2017-12-21T23:16:07.353Z,6.16
2017-12-21T23:21:08.157Z,6.15
2017-12-21T23:26:30.192Z,6.11
2017-12-21T23:31:31.050Z,6.13
2017-12-21T23:36:35.971Z,6.11
2017-12-21T23:41:53.925Z,6.16
2017-12-21T23:46:54.785Z,6.20
2017-12-21T23:51:55.617Z,6.15
2017-12-21T23:56:56.483Z,6.22
